sensor_id;sensor_type;location;lat;lon;timestamp;temperature;humidity
84141;DHT22;74257;52.540;13.416;2023-11-19T00:00:20;24.50;44.60
84141;DHT22;74257;52.540;13.416;2023-11-19T00:03:06;24.50;44.60
84141;DHT22;74257;52.540;13.416;2023-11-19T00:05:32;24.40;44.50
84141;DHT22;74257;52.540;13.416;2023-11-19T00:07:58;24.40;44.50
84141;DHT22;74257;52.540;13.416;2023-11-19T00:10:24;24.40;44.50
84141;DHT22;74257;52.540;13.416;2023-11-19T00:12:50;24.40;44.40
84141;DHT22;74257;52.540;13.416;2023-11-19T00:15:16;24.40;44.50
84141;DHT22;74257;52.540;13.416;2023-11-19T00:17:47;24.40;44.40
84141;DHT22;74257;52.540;13.416;2023-11-19T00:20:18;24.40;44.40
84141;DHT22;74257;52.540;13.416;2023-11-19T00:22:44;24.40;44.40
84141;DHT22;74257;52.540;13.416;2023-11-19T00:25:11;24.40;44.50
84141;DHT22;74257;52.540;13.416;2023-11-19T00:27:37;24.40;44.40
84141;DHT22;74257;52.540;13.416;2023-11-19T00:30:05;24.40;44.40
84141;DHT22;74257;52.540;13.416;2023-11-19T00:32:32;24.40;44.40
84141;DHT22;74257;52.540;13.416;2023-11-19T00:34:58;24.40;44.40
84141;DHT22;74257;52.540;13.416;2023-11-19T00:37:24;24.40;44.40
84141;DHT22;74257;52.540;13.416;2023-11-19T00:39:49;24.40;44.40
84141;DHT22;74257;52.540;13.416;2023-11-19T00:42:15;24.40;44.40
84141;DHT22;74257;52.540;13.416;2023-11-19T00:44:41;24.40;44.40
84141;DHT22;74257;52.540;13.416;2023-11-19T00:47:07;24.30;44.40
84141;DHT22;74257;52.540;13.416;2023-11-19T00:49:33;24.30;44.40
84141;DHT22;74257;52.540;13.416;2023-11-19T00:51:59;24.30;44.40
84141;DHT22;74257;52.540;13.416;2023-11-19T00:54:25;24.30;44.30
84141;DHT22;74257;52.540;13.416;2023-11-19T00:56:52;24.30;44.30
84141;DHT22;74257;52.540;13.416;2023-11-19T00:59:18;24.30;44.30
84141;DHT22;74257;52.540;13.416;2023-11-19T01:01:44;24.20;44.30
84141;DHT22;74257;52.540;13.416;2023-11-19T01:04:10;24.20;44.20
84141;DHT22;74257;52.540;13.416;2023-11-19T01:06:36;24.20;44.30
84141;DHT22;74257;52.540;13.416;2023-11-19T01:09:02;24.20;44.30
84141;DHT22;74257;52.540;13.416;2023-11-19T01:11:28;24.20;44.30
84141;DHT22;74257;52.540;13.416;2023-11-19T01:13:54;24.20;44.20
84141;DHT22;74257;52.540;13.416;2023-11-19T01:16:20;24.20;44.30
84141;DHT22;74257;52.540;13.416;2023-11-19T01:18:47;24.20;44.30
84141;DHT22;74257;52.540;13.416;2023-11-19T01:21:14;24.20;44.20
84141;DHT22;74257;52.540;13.416;2023-11-19T01:23:42;24.20;44.20
84141;DHT22;74257;52.540;13.416;2023-11-19T01:26:10;24.20;44.20
84141;DHT22;74257;52.540;13.416;2023-11-19T01:28:36;24.20;44.20
84141;DHT22;74257;52.540;13.416;2023-11-19T01:31:02;24.20;44.20
84141;DHT22;74257;52.540;13.416;2023-11-19T01:33:29;24.20;44.10
84141;DHT22;74257;52.540;13.416;2023-11-19T01:35:55;24.20;44.10
84141;DHT22;74257;52.540;13.416;2023-11-19T01:38:24;24.20;44.20
84141;DHT22;74257;52.540;13.416;2023-11-19T01:40:50;24.20;44.10
84141;DHT22;74257;52.540;13.416;2023-11-19T01:43:34;24.20;44.10
84141;DHT22;74257;52.540;13.416;2023-11-19T01:46:01;24.20;44.00
84141;DHT22;74257;52.540;13.416;2023-11-19T01:48:29;24.20;44.10
84141;DHT22;74257;52.540;13.416;2023-11-19T01:50:56;24.20;44.10
84141;DHT22;74257;52.540;13.416;2023-11-19T01:53:22;24.10;44.10
84141;DHT22;74257;52.540;13.416;2023-11-19T01:55:49;24.10;44.00
84141;DHT22;74257;52.540;13.416;2023-11-19T01:58:15;24.10;44.10
84141;DHT22;74257;52.540;13.416;2023-11-19T02:00:43;24.10;44.00
84141;DHT22;74257;52.540;13.416;2023-11-19T02:03:09;24.10;44.10
84141;DHT22;74257;52.540;13.416;2023-11-19T02:05:36;24.10;44.10
84141;DHT22;74257;52.540;13.416;2023-11-19T02:08:02;24.10;44.10
84141;DHT22;74257;52.540;13.416;2023-11-19T02:10:29;24.00;44.10
84141;DHT22;74257;52.540;13.416;2023-11-19T02:12:54;24.00;44.00
84141;DHT22;74257;52.540;13.416;2023-11-19T02:15:21;24.00;44.00
84141;DHT22;74257;52.540;13.416;2023-11-19T02:17:50;24.00;44.00
84141;DHT22;74257;52.540;13.416;2023-11-19T02:20:17;24.00;44.10
84141;DHT22;74257;52.540;13.416;2023-11-19T02:22:46;24.00;44.00
84141;DHT22;74257;52.540;13.416;2023-11-19T02:25:29;24.00;44.00
84141;DHT22;74257;52.540;13.416;2023-11-19T02:27:58;24.00;44.00
84141;DHT22;74257;52.540;13.416;2023-11-19T02:30:25;24.00;44.00
84141;DHT22;74257;52.540;13.416;2023-11-19T02:32:53;24.00;44.00
84141;DHT22;74257;52.540;13.416;2023-11-19T02:35:20;24.00;44.00
84141;DHT22;74257;52.540;13.416;2023-11-19T02:37:47;24.00;44.00
84141;DHT22;74257;52.540;13.416;2023-11-19T02:40:13;24.00;44.00
84141;DHT22;74257;52.540;13.416;2023-11-19T02:42:39;24.00;44.00
84141;DHT22;74257;52.540;13.416;2023-11-19T02:45:05;24.00;44.00
84141;DHT22;74257;52.540;13.416;2023-11-19T02:47:32;24.00;44.00
84141;DHT22;74257;52.540;13.416;2023-11-19T02:49:58;24.00;44.00
84141;DHT22;74257;52.540;13.416;2023-11-19T02:52:23;24.00;43.90
84141;DHT22;74257;52.540;13.416;2023-11-19T02:54:51;24.00;43.90
84141;DHT22;74257;52.540;13.416;2023-11-19T02:57:17;24.00;44.00
84141;DHT22;74257;52.540;13.416;2023-11-19T02:59:45;24.00;43.90
84141;DHT22;74257;52.540;13.416;2023-11-19T03:02:11;24.00;44.00
84141;DHT22;74257;52.540;13.416;2023-11-19T03:04:38;23.90;44.00
84141;DHT22;74257;52.540;13.416;2023-11-19T03:07:08;24.00;44.00
84141;DHT22;74257;52.540;13.416;2023-11-19T03:09:34;24.00;43.90
84141;DHT22;74257;52.540;13.416;2023-11-19T03:12:06;24.00;43.90
84141;DHT22;74257;52.540;13.416;2023-11-19T03:14:33;23.90;44.00
84141;DHT22;74257;52.540;13.416;2023-11-19T03:17:00;24.00;43.90
84141;DHT22;74257;52.540;13.416;2023-11-19T03:19:26;24.00;43.90
84141;DHT22;74257;52.540;13.416;2023-11-19T03:21:52;24.00;44.00
84141;DHT22;74257;52.540;13.416;2023-11-19T03:24:18;23.90;43.90
84141;DHT22;74257;52.540;13.416;2023-11-19T03:26:48;23.90;43.90
84141;DHT22;74257;52.540;13.416;2023-11-19T03:29:15;23.90;43.90
84141;DHT22;74257;52.540;13.416;2023-11-19T03:31:44;24.00;43.90
84141;DHT22;74257;52.540;13.416;2023-11-19T03:34:12;23.90;43.90
84141;DHT22;74257;52.540;13.416;2023-11-19T03:36:38;23.90;43.80
84141;DHT22;74257;52.540;13.416;2023-11-19T03:39:05;23.90;43.80
84141;DHT22;74257;52.540;13.416;2023-11-19T03:41:31;23.90;43.80
84141;DHT22;74257;52.540;13.416;2023-11-19T03:43:57;23.90;43.70
84141;DHT22;74257;52.540;13.416;2023-11-19T03:46:22;23.90;43.80
84141;DHT22;74257;52.540;13.416;2023-11-19T03:48:49;23.90;43.70
84141;DHT22;74257;52.540;13.416;2023-11-19T03:51:15;23.90;43.70
84141;DHT22;74257;52.540;13.416;2023-11-19T03:53:45;23.90;43.70
84141;DHT22;74257;52.540;13.416;2023-11-19T03:56:11;23.90;43.70
84141;DHT22;74257;52.540;13.416;2023-11-19T03:58:38;23.90;43.60
84141;DHT22;74257;52.540;13.416;2023-11-19T04:01:04;23.90;43.70
84141;DHT22;74257;52.540;13.416;2023-11-19T04:03:31;23.90;43.70
84141;DHT22;74257;52.540;13.416;2023-11-19T04:05:56;23.90;43.60
84141;DHT22;74257;52.540;13.416;2023-11-19T04:08:22;23.90;43.60
84141;DHT22;74257;52.540;13.416;2023-11-19T04:10:48;23.90;43.60
84141;DHT22;74257;52.540;13.416;2023-11-19T04:13:14;23.90;43.60
84141;DHT22;74257;52.540;13.416;2023-11-19T04:15:40;23.90;43.50
84141;DHT22;74257;52.540;13.416;2023-11-19T04:18:06;23.90;43.50
84141;DHT22;74257;52.540;13.416;2023-11-19T04:20:32;23.90;43.50
84141;DHT22;74257;52.540;13.416;2023-11-19T04:22:58;23.90;43.60
84141;DHT22;74257;52.540;13.416;2023-11-19T04:25:26;23.90;43.60
84141;DHT22;74257;52.540;13.416;2023-11-19T04:27:52;23.90;43.60
84141;DHT22;74257;52.540;13.416;2023-11-19T04:30:18;23.90;43.60
84141;DHT22;74257;52.540;13.416;2023-11-19T04:32:44;23.90;43.60
84141;DHT22;74257;52.540;13.416;2023-11-19T04:35:10;23.90;43.60
84141;DHT22;74257;52.540;13.416;2023-11-19T04:37:37;23.90;43.60
84141;DHT22;74257;52.540;13.416;2023-11-19T04:40:03;23.90;43.50
84141;DHT22;74257;52.540;13.416;2023-11-19T04:42:29;23.90;43.50
84141;DHT22;74257;52.540;13.416;2023-11-19T04:44:55;23.90;43.50
84141;DHT22;74257;52.540;13.416;2023-11-19T04:47:21;23.90;43.50
84141;DHT22;74257;52.540;13.416;2023-11-19T04:49:47;23.90;43.50
84141;DHT22;74257;52.540;13.416;2023-11-19T04:52:13;23.90;43.50
84141;DHT22;74257;52.540;13.416;2023-11-19T04:54:42;23.90;43.50
84141;DHT22;74257;52.540;13.416;2023-11-19T04:57:11;23.90;43.40
84141;DHT22;74257;52.540;13.416;2023-11-19T04:59:38;23.90;43.40
84141;DHT22;74257;52.540;13.416;2023-11-19T05:02:04;23.80;43.40
84141;DHT22;74257;52.540;13.416;2023-11-19T05:04:30;23.90;43.40
84141;DHT22;74257;52.540;13.416;2023-11-19T05:06:56;23.80;43.40
84141;DHT22;74257;52.540;13.416;2023-11-19T05:09:22;23.90;43.40
84141;DHT22;74257;52.540;13.416;2023-11-19T05:11:48;23.90;43.40
84141;DHT22;74257;52.540;13.416;2023-11-19T05:14:14;23.80;43.40
84141;DHT22;74257;52.540;13.416;2023-11-19T05:16:41;23.80;43.40
84141;DHT22;74257;52.540;13.416;2023-11-19T05:19:07;23.80;43.40
84141;DHT22;74257;52.540;13.416;2023-11-19T05:21:33;23.80;43.40
84141;DHT22;74257;52.540;13.416;2023-11-19T05:24:00;23.90;43.30
84141;DHT22;74257;52.540;13.416;2023-11-19T05:26:26;23.80;43.40
84141;DHT22;74257;52.540;13.416;2023-11-19T05:28:52;23.80;43.40
84141;DHT22;74257;52.540;13.416;2023-11-19T05:31:18;23.80;43.40
84141;DHT22;74257;52.540;13.416;2023-11-19T05:33:44;23.80;43.40
84141;DHT22;74257;52.540;13.416;2023-11-19T05:36:11;23.80;43.40
84141;DHT22;74257;52.540;13.416;2023-11-19T05:38:38;23.80;43.40
84141;DHT22;74257;52.540;13.416;2023-11-19T05:41:05;23.80;43.40
84141;DHT22;74257;52.540;13.416;2023-11-19T05:43:31;23.80;43.40
84141;DHT22;74257;52.540;13.416;2023-11-19T05:45:57;23.80;43.50
84141;DHT22;74257;52.540;13.416;2023-11-19T05:48:25;23.80;43.50
84141;DHT22;74257;52.540;13.416;2023-11-19T05:50:51;23.80;43.50
84141;DHT22;74257;52.540;13.416;2023-11-19T05:53:17;23.80;43.40
84141;DHT22;74257;52.540;13.416;2023-11-19T05:55:43;23.80;43.50
84141;DHT22;74257;52.540;13.416;2023-11-19T05:58:22;23.80;43.50
84141;DHT22;74257;52.540;13.416;2023-11-19T06:00:48;23.80;43.50
84141;DHT22;74257;52.540;13.416;2023-11-19T06:03:16;23.80;43.40
84141;DHT22;74257;52.540;13.416;2023-11-19T06:05:45;23.80;43.50
84141;DHT22;74257;52.540;13.416;2023-11-19T06:08:12;23.80;43.40
84141;DHT22;74257;52.540;13.416;2023-11-19T06:10:40;23.80;43.50
84141;DHT22;74257;52.540;13.416;2023-11-19T06:13:06;23.80;43.50
84141;DHT22;74257;52.540;13.416;2023-11-19T06:15:33;23.80;43.50
84141;DHT22;74257;52.540;13.416;2023-11-19T06:17:59;23.80;43.40
84141;DHT22;74257;52.540;13.416;2023-11-19T06:20:29;23.80;43.50
84141;DHT22;74257;52.540;13.416;2023-11-19T06:22:56;23.80;43.40
84141;DHT22;74257;52.540;13.416;2023-11-19T06:25:22;23.80;43.40
84141;DHT22;74257;52.540;13.416;2023-11-19T06:27:50;23.80;43.40
84141;DHT22;74257;52.540;13.416;2023-11-19T06:30:16;23.80;43.30
84141;DHT22;74257;52.540;13.416;2023-11-19T06:32:42;23.70;43.30
84141;DHT22;74257;52.540;13.416;2023-11-19T06:35:08;23.70;43.30
84141;DHT22;74257;52.540;13.416;2023-11-19T06:37:37;23.80;43.30
84141;DHT22;74257;52.540;13.416;2023-11-19T06:40:04;23.80;43.20
84141;DHT22;74257;52.540;13.416;2023-11-19T06:42:30;23.80;43.30
84141;DHT22;74257;52.540;13.416;2023-11-19T06:44:57;23.70;43.20
84141;DHT22;74257;52.540;13.416;2023-11-19T06:47:26;23.70;43.30
84141;DHT22;74257;52.540;13.416;2023-11-19T06:49:53;23.80;43.20
84141;DHT22;74257;52.540;13.416;2023-11-19T06:52:19;23.70;43.20
84141;DHT22;74257;52.540;13.416;2023-11-19T06:54:45;23.70;43.20
84141;DHT22;74257;52.540;13.416;2023-11-19T06:57:11;23.70;43.20
84141;DHT22;74257;52.540;13.416;2023-11-19T06:59:37;23.70;43.10
84141;DHT22;74257;52.540;13.416;2023-11-19T07:02:03;23.70;43.10
84141;DHT22;74257;52.540;13.416;2023-11-19T07:04:31;23.70;43.10
84141;DHT22;74257;52.540;13.416;2023-11-19T07:06:57;23.70;43.10
84141;DHT22;74257;52.540;13.416;2023-11-19T07:09:23;23.70;43.10
84141;DHT22;74257;52.540;13.416;2023-11-19T07:11:49;23.70;43.10
84141;DHT22;74257;52.540;13.416;2023-11-19T07:14:18;23.70;43.10
84141;DHT22;74257;52.540;13.416;2023-11-19T07:16:44;23.70;43.10
84141;DHT22;74257;52.540;13.416;2023-11-19T07:19:11;23.60;43.10
84141;DHT22;74257;52.540;13.416;2023-11-19T07:21:40;23.70;43.00
84141;DHT22;74257;52.540;13.416;2023-11-19T07:24:10;23.70;43.00
84141;DHT22;74257;52.540;13.416;2023-11-19T07:26:36;23.70;43.10
84141;DHT22;74257;52.540;13.416;2023-11-19T07:29:06;23.60;43.00
84141;DHT22;74257;52.540;13.416;2023-11-19T07:31:33;23.60;43.00
84141;DHT22;74257;52.540;13.416;2023-11-19T07:33:59;23.70;43.00
84141;DHT22;74257;52.540;13.416;2023-11-19T07:36:25;23.70;43.00
84141;DHT22;74257;52.540;13.416;2023-11-19T07:38:51;23.60;43.00
84141;DHT22;74257;52.540;13.416;2023-11-19T07:41:16;23.60;43.00
84141;DHT22;74257;52.540;13.416;2023-11-19T07:43:45;23.60;43.00
84141;DHT22;74257;52.540;13.416;2023-11-19T07:46:16;23.60;43.00
84141;DHT22;74257;52.540;13.416;2023-11-19T07:48:42;23.60;43.00
84141;DHT22;74257;52.540;13.416;2023-11-19T07:51:08;23.60;43.00
84141;DHT22;74257;52.540;13.416;2023-11-19T07:53:34;23.70;43.00
84141;DHT22;74257;52.540;13.416;2023-11-19T07:56:00;23.60;43.00
84141;DHT22;74257;52.540;13.416;2023-11-19T07:58:27;23.70;43.00
84141;DHT22;74257;52.540;13.416;2023-11-19T08:00:52;23.70;43.00
84141;DHT22;74257;52.540;13.416;2023-11-19T08:03:18;23.60;43.00
84141;DHT22;74257;52.540;13.416;2023-11-19T08:05:45;23.60;43.00
84141;DHT22;74257;52.540;13.416;2023-11-19T08:08:12;23.70;43.00
84141;DHT22;74257;52.540;13.416;2023-11-19T08:10:37;23.70;43.00
84141;DHT22;74257;52.540;13.416;2023-11-19T08:13:04;23.70;43.00
84141;DHT22;74257;52.540;13.416;2023-11-19T08:15:30;23.70;43.00
84141;DHT22;74257;52.540;13.416;2023-11-19T08:17:56;23.70;43.10
84141;DHT22;74257;52.540;13.416;2023-11-19T08:20:22;23.70;43.20
84141;DHT22;74257;52.540;13.416;2023-11-19T08:22:48;23.70;43.20
84141;DHT22;74257;52.540;13.416;2023-11-19T08:25:14;23.70;43.20
84141;DHT22;74257;52.540;13.416;2023-11-19T08:27:40;23.70;43.30
84141;DHT22;74257;52.540;13.416;2023-11-19T08:30:06;23.60;43.30
84141;DHT22;74257;52.540;13.416;2023-11-19T08:32:32;23.70;43.40
84141;DHT22;74257;52.540;13.416;2023-11-19T08:34:58;23.70;43.50
84141;DHT22;74257;52.540;13.416;2023-11-19T08:37:24;23.70;43.60
84141;DHT22;74257;52.540;13.416;2023-11-19T08:39:50;23.70;43.60
84141;DHT22;74257;52.540;13.416;2023-11-19T08:42:19;23.70;43.60
84141;DHT22;74257;52.540;13.416;2023-11-19T08:44:49;23.70;43.60
84141;DHT22;74257;52.540;13.416;2023-11-19T08:47:17;23.70;43.70
84141;DHT22;74257;52.540;13.416;2023-11-19T08:49:45;23.70;43.70
84141;DHT22;74257;52.540;13.416;2023-11-19T08:52:12;23.70;43.90
84141;DHT22;74257;52.540;13.416;2023-11-19T08:54:37;23.70;44.00
84141;DHT22;74257;52.540;13.416;2023-11-19T08:57:04;23.70;44.00
84141;DHT22;74257;52.540;13.416;2023-11-19T08:59:30;23.80;44.10
84141;DHT22;74257;52.540;13.416;2023-11-19T09:01:56;23.70;44.20
84141;DHT22;74257;52.540;13.416;2023-11-19T09:04:22;23.80;44.20
84141;DHT22;74257;52.540;13.416;2023-11-19T09:06:49;23.70;44.20
84141;DHT22;74257;52.540;13.416;2023-11-19T09:09:14;23.80;44.30
84141;DHT22;74257;52.540;13.416;2023-11-19T09:11:40;23.80;44.40
84141;DHT22;74257;52.540;13.416;2023-11-19T09:14:06;23.80;44.50
84141;DHT22;74257;52.540;13.416;2023-11-19T09:16:32;23.80;44.50
84141;DHT22;74257;52.540;13.416;2023-11-19T09:18:58;23.80;44.60
84141;DHT22;74257;52.540;13.416;2023-11-19T09:21:28;23.80;44.60
84141;DHT22;74257;52.540;13.416;2023-11-19T09:23:56;23.80;44.70
84141;DHT22;74257;52.540;13.416;2023-11-19T09:26:23;23.80;44.80
84141;DHT22;74257;52.540;13.416;2023-11-19T09:28:48;23.80;44.70
84141;DHT22;74257;52.540;13.416;2023-11-19T09:31:18;23.80;44.80
84141;DHT22;74257;52.540;13.416;2023-11-19T09:33:44;23.80;44.90
84141;DHT22;74257;52.540;13.416;2023-11-19T09:36:12;23.80;44.90
84141;DHT22;74257;52.540;13.416;2023-11-19T09:38:43;23.80;44.90
84141;DHT22;74257;52.540;13.416;2023-11-19T09:41:10;23.80;44.90
84141;DHT22;74257;52.540;13.416;2023-11-19T09:43:39;23.80;45.00
84141;DHT22;74257;52.540;13.416;2023-11-19T09:46:06;23.80;45.10
84141;DHT22;74257;52.540;13.416;2023-11-19T09:48:37;23.90;45.10
84141;DHT22;74257;52.540;13.416;2023-11-19T09:51:07;23.90;45.20
84141;DHT22;74257;52.540;13.416;2023-11-19T09:53:34;23.90;45.20
84141;DHT22;74257;52.540;13.416;2023-11-19T09:56:02;23.90;45.20
84141;DHT22;74257;52.540;13.416;2023-11-19T09:58:30;23.90;45.50
84141;DHT22;74257;52.540;13.416;2023-11-19T10:00:57;23.90;45.50
84141;DHT22;74257;52.540;13.416;2023-11-19T10:03:34;23.90;45.30
84141;DHT22;74257;52.540;13.416;2023-11-19T10:06:09;23.90;45.20
84141;DHT22;74257;52.540;13.416;2023-11-19T10:08:39;23.90;45.10
84141;DHT22;74257;52.540;13.416;2023-11-19T10:11:06;23.90;45.00
84141;DHT22;74257;52.540;13.416;2023-11-19T10:13:36;24.00;45.00
84141;DHT22;74257;52.540;13.416;2023-11-19T10:16:08;24.00;45.00
84141;DHT22;74257;52.540;13.416;2023-11-19T10:18:34;24.00;44.90
84141;DHT22;74257;52.540;13.416;2023-11-19T10:21:05;24.00;44.90
84141;DHT22;74257;52.540;13.416;2023-11-19T10:23:31;24.00;44.80
84141;DHT22;74257;52.540;13.416;2023-11-19T10:26:04;24.00;44.60
84141;DHT22;74257;52.540;13.416;2023-11-19T10:28:39;24.00;44.60
84141;DHT22;74257;52.540;13.416;2023-11-19T10:31:05;24.00;44.60
84141;DHT22;74257;52.540;13.416;2023-11-19T10:33:31;24.00;44.70
84141;DHT22;74257;52.540;13.416;2023-11-19T10:35:58;24.00;44.70
84141;DHT22;74257;52.540;13.416;2023-11-19T10:38:24;24.00;44.90
84141;DHT22;74257;52.540;13.416;2023-11-19T10:40:51;24.00;44.80
84141;DHT22;74257;52.540;13.416;2023-11-19T10:43:21;24.00;44.90
84141;DHT22;74257;52.540;13.416;2023-11-19T10:45:49;24.00;44.90
84141;DHT22;74257;52.540;13.416;2023-11-19T10:48:15;24.00;45.00
84141;DHT22;74257;52.540;13.416;2023-11-19T10:50:43;24.00;45.00
84141;DHT22;74257;52.540;13.416;2023-11-19T10:53:10;24.00;45.00
84141;DHT22;74257;52.540;13.416;2023-11-19T10:55:39;24.00;45.00
84141;DHT22;74257;52.540;13.416;2023-11-19T11:00:47;24.10;45.10
84141;DHT22;74257;52.540;13.416;2023-11-19T11:03:20;24.10;45.00
84141;DHT22;74257;52.540;13.416;2023-11-19T11:05:47;24.10;45.20
84141;DHT22;74257;52.540;13.416;2023-11-19T11:08:14;24.10;45.30
84141;DHT22;74257;52.540;13.416;2023-11-19T11:10:44;24.10;45.40
84141;DHT22;74257;52.540;13.416;2023-11-19T11:13:11;24.10;45.70
84141;DHT22;74257;52.540;13.416;2023-11-19T11:15:39;24.10;45.90
84141;DHT22;74257;52.540;13.416;2023-11-19T11:18:08;24.20;46.10
84141;DHT22;74257;52.540;13.416;2023-11-19T11:20:35;24.20;46.20
84141;DHT22;74257;52.540;13.416;2023-11-19T11:26:35;24.20;46.40
84141;DHT22;74257;52.540;13.416;2023-11-19T11:29:31;24.20;46.60
84141;DHT22;74257;52.540;13.416;2023-11-19T11:34:51;24.20;46.50
84141;DHT22;74257;52.540;13.416;2023-11-19T11:37:24;24.20;46.60
84141;DHT22;74257;52.540;13.416;2023-11-19T11:39:52;24.20;46.80
84141;DHT22;74257;52.540;13.416;2023-11-19T11:45:03;24.20;47.20
84141;DHT22;74257;52.540;13.416;2023-11-19T11:50:15;24.20;47.60
84141;DHT22;74257;52.540;13.416;2023-11-19T11:55:35;24.20;47.80
84141;DHT22;74257;52.540;13.416;2023-11-19T11:58:08;24.20;48.00
84141;DHT22;74257;52.540;13.416;2023-11-19T12:00:38;24.20;48.00
84141;DHT22;74257;52.540;13.416;2023-11-19T12:03:07;24.20;48.00
84141;DHT22;74257;52.540;13.416;2023-11-19T12:05:38;24.30;48.00
84141;DHT22;74257;52.540;13.416;2023-11-19T12:08:05;24.30;48.10
84141;DHT22;74257;52.540;13.416;2023-11-19T12:10:37;24.30;48.20
84141;DHT22;74257;52.540;13.416;2023-11-19T12:13:06;24.30;48.20
84141;DHT22;74257;52.540;13.416;2023-11-19T12:15:33;24.30;48.40
84141;DHT22;74257;52.540;13.416;2023-11-19T12:17:59;24.30;48.20
84141;DHT22;74257;52.540;13.416;2023-11-19T12:20:26;24.40;48.00
84141;DHT22;74257;52.540;13.416;2023-11-19T12:22:53;24.40;47.70
84141;DHT22;74257;52.540;13.416;2023-11-19T12:25:20;24.40;46.50
84141;DHT22;74257;52.540;13.416;2023-11-19T12:27:48;24.30;46.20
84141;DHT22;74257;52.540;13.416;2023-11-19T12:30:21;24.30;46.10
84141;DHT22;74257;52.540;13.416;2023-11-19T12:32:48;24.30;46.00
84141;DHT22;74257;52.540;13.416;2023-11-19T12:35:14;24.30;46.00
84141;DHT22;74257;52.540;13.416;2023-11-19T12:37:42;24.30;46.10
84141;DHT22;74257;52.540;13.416;2023-11-19T12:40:15;24.30;46.20
84141;DHT22;74257;52.540;13.416;2023-11-19T12:42:46;24.30;46.40
84141;DHT22;74257;52.540;13.416;2023-11-19T12:45:12;24.30;46.40
84141;DHT22;74257;52.540;13.416;2023-11-19T12:47:43;24.30;46.40
84141;DHT22;74257;52.540;13.416;2023-11-19T12:50:09;24.30;46.50
84141;DHT22;74257;52.540;13.416;2023-11-19T12:52:36;24.30;46.60
84141;DHT22;74257;52.540;13.416;2023-11-19T12:55:04;24.40;46.60
84141;DHT22;74257;52.540;13.416;2023-11-19T12:57:41;24.40;46.80
84141;DHT22;74257;52.540;13.416;2023-11-19T13:00:18;24.40;46.80
84141;DHT22;74257;52.540;13.416;2023-11-19T13:02:51;24.40;46.80
84141;DHT22;74257;52.540;13.416;2023-11-19T13:05:33;24.40;46.80
84141;DHT22;74257;52.540;13.416;2023-11-19T13:08:09;24.40;46.90
84141;DHT22;74257;52.540;13.416;2023-11-19T13:10:51;24.40;47.10
84141;DHT22;74257;52.540;13.416;2023-11-19T13:13:17;24.40;47.10
84141;DHT22;74257;52.540;13.416;2023-11-19T13:15:44;24.40;47.20
84141;DHT22;74257;52.540;13.416;2023-11-19T13:18:11;24.40;47.10
84141;DHT22;74257;52.540;13.416;2023-11-19T13:20:36;24.40;47.10
84141;DHT22;74257;52.540;13.416;2023-11-19T13:23:04;24.40;47.00
84141;DHT22;74257;52.540;13.416;2023-11-19T13:25:31;24.40;47.10
84141;DHT22;74257;52.540;13.416;2023-11-19T13:27:58;24.40;47.00
84141;DHT22;74257;52.540;13.416;2023-11-19T13:30:25;24.40;46.90
84141;DHT22;74257;52.540;13.416;2023-11-19T13:32:52;24.40;46.80
84141;DHT22;74257;52.540;13.416;2023-11-19T13:35:20;24.40;46.80
84141;DHT22;74257;52.540;13.416;2023-11-19T13:37:46;24.40;46.90
84141;DHT22;74257;52.540;13.416;2023-11-19T13:40:13;24.40;46.90
84141;DHT22;74257;52.540;13.416;2023-11-19T13:42:40;24.50;46.80
84141;DHT22;74257;52.540;13.416;2023-11-19T13:45:09;24.40;46.80
84141;DHT22;74257;52.540;13.416;2023-11-19T13:47:43;24.50;46.70
84141;DHT22;74257;52.540;13.416;2023-11-19T13:50:11;24.40;46.70
84141;DHT22;74257;52.540;13.416;2023-11-19T13:52:38;24.40;46.60
84141;DHT22;74257;52.540;13.416;2023-11-19T13:55:06;24.40;46.50
84141;DHT22;74257;52.540;13.416;2023-11-19T13:57:34;24.40;46.60
84141;DHT22;74257;52.540;13.416;2023-11-19T14:00:02;24.50;46.70
84141;DHT22;74257;52.540;13.416;2023-11-19T14:02:33;24.50;46.70
84141;DHT22;74257;52.540;13.416;2023-11-19T14:04:59;24.50;46.80
84141;DHT22;74257;52.540;13.416;2023-11-19T14:07:25;24.50;46.90
84141;DHT22;74257;52.540;13.416;2023-11-19T14:09:51;24.50;47.00
84141;DHT22;74257;52.540;13.416;2023-11-19T14:12:17;24.50;47.00
84141;DHT22;74257;52.540;13.416;2023-11-19T14:14:43;24.50;47.20
84141;DHT22;74257;52.540;13.416;2023-11-19T14:17:10;24.50;47.30
84141;DHT22;74257;52.540;13.416;2023-11-19T14:19:37;24.50;47.30
84141;DHT22;74257;52.540;13.416;2023-11-19T14:22:05;24.50;47.30
84141;DHT22;74257;52.540;13.416;2023-11-19T14:24:31;24.50;47.50
84141;DHT22;74257;52.540;13.416;2023-11-19T14:26:58;24.50;47.50
84141;DHT22;74257;52.540;13.416;2023-11-19T14:29:24;24.50;47.50
84141;DHT22;74257;52.540;13.416;2023-11-19T14:31:52;24.60;47.40
84141;DHT22;74257;52.540;13.416;2023-11-19T14:34:20;24.60;47.30
84141;DHT22;74257;52.540;13.416;2023-11-19T14:36:46;24.60;47.30
84141;DHT22;74257;52.540;13.416;2023-11-19T14:39:12;24.60;47.30
84141;DHT22;74257;52.540;13.416;2023-11-19T14:41:39;24.60;47.50
84141;DHT22;74257;52.540;13.416;2023-11-19T14:44:05;24.60;47.50
84141;DHT22;74257;52.540;13.416;2023-11-19T14:46:32;24.60;47.50
84141;DHT22;74257;52.540;13.416;2023-11-19T14:48:57;24.60;47.50
84141;DHT22;74257;52.540;13.416;2023-11-19T14:51:25;24.60;47.50
84141;DHT22;74257;52.540;13.416;2023-11-19T14:53:51;24.60;47.40
84141;DHT22;74257;52.540;13.416;2023-11-19T14:56:17;24.60;47.30
84141;DHT22;74257;52.540;13.416;2023-11-19T14:58:43;24.60;47.30
84141;DHT22;74257;52.540;13.416;2023-11-19T15:01:13;24.60;47.20
84141;DHT22;74257;52.540;13.416;2023-11-19T15:03:39;24.60;46.90
84141;DHT22;74257;52.540;13.416;2023-11-19T15:06:06;24.60;46.80
84141;DHT22;74257;52.540;13.416;2023-11-19T15:08:33;24.60;46.60
84141;DHT22;74257;52.540;13.416;2023-11-19T15:10:59;24.70;46.50
84141;DHT22;74257;52.540;13.416;2023-11-19T15:13:28;24.60;46.50
84141;DHT22;74257;52.540;13.416;2023-11-19T15:15:54;24.60;46.50
84141;DHT22;74257;52.540;13.416;2023-11-19T15:18:21;24.70;46.50
84141;DHT22;74257;52.540;13.416;2023-11-19T15:20:47;24.70;46.50
84141;DHT22;74257;52.540;13.416;2023-11-19T15:23:16;24.70;46.40
84141;DHT22;74257;52.540;13.416;2023-11-19T15:25:42;24.70;46.20
84141;DHT22;74257;52.540;13.416;2023-11-19T15:28:08;24.70;46.10
84141;DHT22;74257;52.540;13.416;2023-11-19T15:30:35;24.60;46.00
84141;DHT22;74257;52.540;13.416;2023-11-19T15:33:01;24.60;46.00